createdAt,value
2023-04-16T00:00:08.910Z,100575.88
2023-04-16T00:05:12.475Z,100589.31
2023-04-16T00:10:17.664Z,100588.94
2023-04-16T00:15:22.935Z,100593.81
2023-04-16T00:20:26.405Z,100586.78
2023-04-16T00:25:31.511Z,100574.44
2023-04-16T00:30:35.384Z,100595.25
2023-04-16T00:35:39.373Z,100603.28
2023-04-16T00:40:44.575Z,100596.31
2023-04-16T00:45:48.473Z,100599.41
2023-04-16T00:50:52.030Z,100598.25
2023-04-16T00:55:58.395Z,100602.94
2023-04-16T01:01:02.234Z,100597.81
2023-04-16T01:06:07.538Z,100599.03
2023-04-16T01:11:13.257Z,100601.91
2023-04-16T01:16:16.997Z,100602.75
2023-04-16T01:21:22.074Z,100591.38
2023-04-16T01:26:25.285Z,100595.03
2023-04-16T01:31:28.787Z,100592.25
2023-04-16T01:36:34.015Z,100602.97
2023-04-16T01:41:37.523Z,100591.19
2023-04-16T01:46:41.313Z,100591.84
2023-04-16T01:51:46.166Z,100598.16
2023-04-16T01:56:49.710Z,100591.63
2023-04-16T02:01:53.236Z,100591.84
2023-04-16T02:06:58.109Z,100585.91
2023-04-16T02:12:02.289Z,100591.19
2023-04-16T02:17:06.366Z,100596.09
2023-04-16T02:22:11.334Z,100593.31
2023-04-16T02:27:14.669Z,100592.00
2023-04-16T02:32:18.519Z,100599.25
2023-04-16T02:37:23.448Z,100590.81
2023-04-16T02:42:27.012Z,100596.53
2023-04-16T02:47:30.738Z,100596.31
2023-04-16T02:52:35.874Z,100597.03
2023-04-16T02:57:39.465Z,100608.78
2023-04-16T03:02:43.091Z,100602.03
2023-04-16T03:07:47.968Z,100607.59
2023-04-16T03:12:51.521Z,100613.22
2023-04-16T03:17:55.218Z,100608.50
2023-04-16T03:23:00.478Z,100605.88
2023-04-16T03:28:04.238Z,100610.81
2023-04-16T03:33:07.957Z,100609.72
2023-04-16T03:38:12.855Z,100611.22
2023-04-16T03:43:16.191Z,100619.53
2023-04-16T03:48:19.716Z,100611.03
2023-04-16T03:53:24.593Z,100609.13
2023-04-16T03:58:28.099Z,100616.75
2023-04-16T04:03:31.676Z,100620.47
2023-04-16T04:08:37.126Z,100616.13
2023-04-16T04:13:40.890Z,100607.50
2023-04-16T04:18:44.668Z,100601.53
2023-04-16T04:23:49.612Z,100595.88
2023-04-16T04:28:52.792Z,100598.50
2023-04-16T04:33:56.257Z,100598.91
2023-04-16T04:39:01.219Z,100610.47
2023-04-16T04:44:04.995Z,100606.31
2023-04-16T04:49:08.867Z,100603.56
2023-04-16T04:54:13.980Z,100598.28
2023-04-16T04:59:17.181Z,100604.91
2023-04-16T05:04:20.792Z,100596.91
2023-04-16T05:09:25.980Z,100603.56
2023-04-16T05:14:29.470Z,100595.34
2023-04-16T05:19:32.931Z,100602.88
2023-04-16T05:24:37.814Z,100592.94
2023-04-16T05:29:41.524Z,100598.53
2023-04-16T05:34:44.994Z,100602.50
2023-04-16T05:39:50.232Z,100587.84
2023-04-16T05:44:53.934Z,100584.25
2023-04-16T05:49:57.454Z,100586.19
2023-04-16T05:55:02.368Z,100571.75
2023-04-16T06:00:08.908Z,100561.31
2023-04-16T06:05:12.471Z,100569.75
2023-04-16T06:10:17.707Z,100577.97
2023-04-16T06:15:21.444Z,100571.09
2023-04-16T06:20:24.702Z,100569.97
2023-04-16T06:25:29.537Z,100562.09
2023-04-16T06:30:33.054Z,100564.47
2023-04-16T06:35:36.291Z,100565.34
2023-04-16T06:40:41.263Z,100563.81
2023-04-16T06:45:44.765Z,100557.63
2023-04-16T06:50:48.325Z,100543.78
2023-04-16T06:55:52.888Z,100548.25
2023-04-16T07:00:56.438Z,100550.59
2023-04-16T07:05:59.935Z,100549.34
2023-04-16T07:11:04.843Z,100551.59
2023-04-16T07:16:08.660Z,100554.41
2023-04-16T07:21:12.114Z,100558.19
2023-04-16T07:26:18.332Z,100553.91
2023-04-16T07:31:22.219Z,100547.16
2023-04-16T07:36:27.902Z,100542.88
2023-04-16T07:41:32.844Z,100537.56
2023-04-16T07:46:46.345Z,100533.97
2023-04-16T07:51:51.221Z,100542.00
2023-04-16T07:56:56.471Z,100529.03
2023-04-16T08:02:00.274Z,100520.59
2023-04-16T08:07:04.035Z,100522.53
2023-04-16T08:12:09.085Z,100519.78
2023-04-16T08:17:12.626Z,100520.50
2023-04-16T08:22:16.813Z,100522.09
2023-04-16T08:27:21.748Z,100510.50
2023-04-16T08:32:26.105Z,100497.25
2023-04-16T08:37:29.897Z,100510.06
2023-04-16T08:42:42.254Z,100501.44
2023-04-16T08:47:48.796Z,100503.75
2023-04-16T08:52:54.296Z,100499.06
2023-04-16T08:58:00.907Z,100489.94
2023-04-16T09:03:05.806Z,100496.50
2023-04-16T09:08:09.901Z,100485.03
2023-04-16T09:13:17.069Z,100482.06
2023-04-16T09:18:21.838Z,100485.91
2023-04-16T09:23:26.250Z,100483.66
2023-04-16T09:28:45.782Z,100476.88
2023-04-16T09:34:03.487Z,100480.72
2023-04-16T09:39:07.574Z,100471.13
2023-04-16T09:44:12.836Z,100474.69
2023-04-16T09:49:18.755Z,100458.81
2023-04-16T09:54:22.495Z,100478.81
2023-04-16T09:59:34.023Z,100471.00
2023-04-16T10:04:48.010Z,100464.91
2023-04-16T10:09:52.761Z,100457.06
2023-04-16T10:14:57.515Z,100453.63
2023-04-16T10:20:03.020Z,100451.75
2023-04-16T10:25:09.097Z,100444.25
2023-04-16T10:30:17.009Z,100436.13
2023-04-16T10:35:21.661Z,100438.22
2023-04-16T10:40:26.652Z,100443.09
2023-04-16T10:45:39.339Z,100444.16
2023-04-16T10:50:42.841Z,100435.47
2023-04-16T10:56:12.366Z,100431.13
2023-04-16T11:01:17.537Z,100413.66
2023-04-16T11:06:27.112Z,100408.44
2023-04-16T11:11:39.535Z,100404.97
2023-04-16T11:16:44.536Z,100404.09
2023-04-16T11:21:48.117Z,100410.16
2023-04-16T11:26:53.302Z,100399.75
2023-04-16T11:31:58.469Z,100386.69
2023-04-16T11:37:01.987Z,100386.66
2023-04-16T11:42:05.784Z,100377.97
2023-04-16T11:47:13.932Z,100378.84
2023-04-16T11:52:27.746Z,100377.97
2023-04-16T11:57:32.638Z,100381.47
2023-04-16T12:02:38.059Z,100364.03
2023-04-16T12:07:47.569Z,100357.94
2023-04-16T12:12:51.346Z,100348.31
2023-04-16T12:18:08.599Z,100352.72
2023-04-16T12:23:14.073Z,100350.09
2023-04-16T12:28:29.079Z,100337.91
2023-04-16T12:33:33.707Z,100337.91
2023-04-16T12:38:37.199Z,100330.97
2023-04-16T12:43:40.782Z,100327.44
2023-04-16T12:48:46.266Z,100322.25
2023-04-16T12:53:50.203Z,100296.97
2023-04-16T12:58:53.836Z,100308.28
2023-04-16T13:03:58.935Z,100290.00
2023-04-16T13:09:02.583Z,100290.88
2023-04-16T13:14:06.569Z,100269.06
2023-04-16T13:19:11.890Z,100285.63
2023-04-16T13:24:15.612Z,100293.50
2023-04-16T13:29:19.084Z,100279.56
2023-04-16T13:34:24.302Z,100274.34
2023-04-16T13:39:27.894Z,100275.19
2023-04-16T13:44:31.667Z,100278.66
2023-04-16T13:49:36.735Z,100269.97
2023-04-16T13:54:40.679Z,100257.81
2023-04-16T13:59:44.192Z,100250.84
2023-04-16T14:04:49.090Z,100260.38
2023-04-16T14:09:52.547Z,100249.94
2023-04-16T14:14:56.158Z,100258.63
2023-04-16T14:20:01.056Z,100255.13
2023-04-16T14:25:05.379Z,100242.13
2023-04-16T14:30:09.834Z,100239.50
2023-04-16T14:35:14.980Z,100253.44
2023-04-16T14:40:18.453Z,100240.41
2023-04-16T14:45:22.214Z,100235.97
2023-04-16T14:50:27.230Z,100241.16
2023-04-16T14:55:30.931Z,100215.13
2023-04-16T15:00:36.058Z,100236.81
2023-04-16T15:05:41.392Z,100237.75
2023-04-16T15:10:45.975Z,100234.28
2023-04-16T15:15:49.663Z,100230.81
2023-04-16T15:20:55.952Z,100239.53
2023-04-16T15:25:59.920Z,100229.09
2023-04-16T15:31:03.505Z,100209.09
2023-04-16T15:36:08.953Z,100232.53
2023-04-16T15:41:12.563Z,100229.94
2023-04-16T15:46:16.505Z,100227.31
2023-04-16T15:51:21.850Z,100224.66
2023-04-16T15:56:25.499Z,100222.00
2023-04-16T16:01:28.967Z,100224.59
2023-04-16T16:06:33.949Z,100217.50
2023-04-16T16:11:38.548Z,100217.47
2023-04-16T16:16:42.382Z,100231.31
2023-04-16T16:21:47.549Z,100225.22
2023-04-16T16:26:51.216Z,100228.66
2023-04-16T16:31:54.876Z,100226.94
2023-04-16T16:36:59.922Z,100228.63
2023-04-16T16:42:03.496Z,100226.00
2023-04-16T16:47:07.137Z,100229.41
2023-04-16T16:52:12.154Z,100224.97
2023-04-16T16:57:15.767Z,100232.78
2023-04-16T17:02:19.763Z,100227.53
2023-04-16T17:07:24.792Z,100224.06
2023-04-16T17:12:28.560Z,100230.16
2023-04-16T17:17:32.840Z,100230.09
2023-04-16T17:22:38.810Z,100238.66
2023-04-16T17:27:42.616Z,100224.75
2023-04-16T17:32:46.322Z,100235.09
2023-04-16T17:37:51.201Z,100230.66
2023-04-16T17:42:54.383Z,100235.72
2023-04-16T17:47:57.908Z,100231.34
2023-04-16T17:53:03.781Z,100227.84
2023-04-16T17:58:07.548Z,100234.75
2023-04-16T18:03:11.707Z,100227.66
2023-04-16T18:08:16.864Z,100223.19
2023-04-16T18:13:20.598Z,100232.75
2023-04-16T18:18:24.093Z,100198.75
2023-04-16T18:23:28.994Z,100227.44
2023-04-16T18:28:32.404Z,100221.34
2023-04-16T18:33:53.957Z,100218.53
2023-04-16T18:39:02.651Z,100213.31
2023-04-16T18:44:06.918Z,100214.94
2023-04-16T18:49:10.838Z,100211.38
2023-04-16T18:54:16.774Z,100212.13
2023-04-16T18:59:20.367Z,100212.00
2023-04-16T19:04:24.101Z,100192.69
2023-04-16T19:09:29.098Z,100208.34
2023-04-16T19:14:32.313Z,100205.53
2023-04-16T19:19:36.059Z,100202.69
2023-04-16T19:24:40.988Z,100204.28
2023-04-16T19:29:45.526Z,100201.56
2023-04-16T19:34:49.006Z,100209.03
2023-04-16T19:39:54.922Z,100207.16
2023-04-16T19:44:58.513Z,100207.13
2023-04-16T19:50:02.355Z,100214.91
2023-04-16T19:55:10.124Z,100208.13
2023-04-16T20:00:14.649Z,100209.84
2023-04-16T20:05:18.568Z,100220.13
2023-04-16T20:10:23.502Z,100216.66
2023-04-16T20:15:27.410Z,100214.81
2023-04-16T20:20:30.912Z,100210.44
2023-04-16T20:25:35.828Z,100211.25
2023-04-16T20:30:40.059Z,100206.94
2023-04-16T20:35:43.741Z,100205.22
2023-04-16T20:40:48.599Z,100191.28
2023-04-16T20:45:52.498Z,100197.38
2023-04-16T20:50:59.735Z,100206.19
2023-04-16T20:56:04.726Z,100205.28
2023-04-16T21:01:08.560Z,100194.97
2023-04-16T21:06:14.576Z,100198.50
2023-04-16T21:11:19.701Z,100202.97
2023-04-16T21:16:23.392Z,100190.69
2023-04-16T21:21:27.652Z,100196.72
2023-04-16T21:26:32.620Z,100196.91
2023-04-16T21:31:35.846Z,100204.63
2023-04-16T21:36:39.330Z,100204.47
2023-04-16T21:41:44.239Z,100206.28
2023-04-16T21:46:47.459Z,100208.06
2023-04-16T21:51:59.320Z,100214.03
2023-04-16T21:57:04.617Z,100212.28
2023-04-16T22:02:08.218Z,100209.59
2023-04-16T22:07:11.938Z,100208.69
2023-04-16T22:12:17.192Z,100206.91
2023-04-16T22:17:20.799Z,100213.81
2023-04-16T22:22:24.691Z,100209.19
2023-04-16T22:27:29.539Z,100211.59
2023-04-16T22:32:33.370Z,100209.50
2023-04-16T22:37:37.096Z,100210.38
2023-04-16T22:42:42.103Z,100198.78
2023-04-16T22:47:45.670Z,100206.34
2023-04-16T22:52:49.198Z,100214.78
2023-04-16T22:57:54.307Z,100205.16
2023-04-16T23:02:58.009Z,100207.97
2023-04-16T23:08:01.579Z,100200.31
2023-04-16T23:13:06.668Z,100204.72
2023-04-16T23:18:09.923Z,100200.31
2023-04-16T23:23:13.370Z,100195.84
2023-04-16T23:28:18.451Z,100185.41
2023-04-16T23:33:22.472Z,100200.06
2023-04-16T23:38:25.950Z,100195.59
2023-04-16T23:43:31.009Z,100203.38
2023-04-16T23:48:34.335Z,100212.88
2023-04-16T23:53:37.733Z,100195.25
2023-04-16T23:58:42.648Z,100204.03
